Time;durP1;ratioP1;P1;durP2;ratioP2;P2;SDS_P1;SDS_P2;PMS_P1;PMS_P2;Temp;Humidity;BMP_temperature;BMP_pressure;BME280_temperature;BME280_humidity;BME280_pressure;Samples;Min_cycle;Max_cycle;Signal;HPM_P1;HPM_P2
2023/08/27 00:01:39;;;;;;;3.90;1.75;;;;;;;27.60;53.18;98907.75;4466052;32;32968;-78
2023/08/27 00:04:08;;;;;;;2.78;1.52;;;;;;;27.74;52.59;98916.22;4469858;32;33396;-77
2023/08/27 00:06:37;;;;;;;2.62;1.50;;;;;;;27.47;53.37;98920.53;4463796;32;33807;-78
2023/08/27 00:09:06;;;;;;;3.60;1.95;;;;;;;27.47;53.09;98923.22;4462102;32;33947;-78
2023/08/27 00:11:35;;;;;;;4.33;2.47;;;;;;;27.62;52.70;98923.59;4461485;32;33356;-77
2023/08/27 00:14:04;;;;;;;7.85;3.67;;;;;;;27.30;53.62;98931.97;4463942;32;34673;-78
2023/08/27 00:16:36;;;;;;;4.12;2.50;;;;;;;27.19;55.02;98933.84;4459454;32;33731;-77
2023/08/27 00:19:05;;;;;;;4.95;2.37;;;;;;;27.20;55.51;98935.50;4458309;32;32862;-78
2023/08/27 00:21:34;;;;;;;2.55;1.70;;;;;;;27.14;56.13;98932.56;4461245;32;32966;-78
2023/08/27 00:24:04;;;;;;;4.45;2.50;;;;;;;27.07;56.47;98934.97;4475360;32;33558;-78
2023/08/27 00:26:32;;;;;;;4.07;1.75;;;;;;;27.01;56.76;98930.19;4480264;32;33896;-78
2023/08/27 00:29:01;;;;;;;4.93;2.70;;;;;;;27.17;56.43;98929.62;4475382;32;33364;-78
2023/08/27 00:31:30;;;;;;;3.97;2.33;;;;;;;26.96;56.92;98932.47;4474293;32;33149;-77
2023/08/27 00:34:03;;;;;;;1.95;1.50;;;;;;;26.99;56.79;98929.50;4473836;32;33488;-77
2023/08/27 00:36:31;;;;;;;4.65;2.08;;;;;;;26.83;57.22;98931.94;4479396;32;33104;-78
2023/08/27 00:39:00;;;;;;;5.40;1.98;;;;;;;26.86;57.12;98926.31;4473397;32;34181;-78
2023/08/27 00:41:29;;;;;;;4.10;2.10;;;;;;;26.78;57.06;98927.03;4473351;32;33439;-78
2023/08/27 00:43:58;;;;;;;4.62;1.87;;;;;;;26.72;57.31;98920.44;4473645;32;33422;-77
2023/08/27 00:46:26;;;;;;;4.22;2.40;;;;;;;26.84;56.89;98913.16;4477072;32;33769;-77
2023/08/27 00:48:56;;;;;;;4.00;2.05;;;;;;;26.73;57.21;98916.81;4481128;32;34513;-78
2023/08/27 00:51:26;;;;;;;3.00;1.85;;;;;;;26.72;57.10;98923.09;4474849;32;34193;-77
2023/08/27 00:53:55;;;;;;;4.12;2.08;;;;;;;26.80;56.73;98917.09;4475380;32;32846;-77
2023/08/27 00:56:24;;;;;;;4.30;2.17;;;;;;;26.65;57.09;98916.69;4469432;32;34475;-78
2023/08/27 00:58:53;;;;;;;3.60;2.20;;;;;;;26.90;56.42;98909.09;4467454;32;33477;-77
2023/08/27 01:01:22;;;;;;;3.90;2.58;;;;;;;26.73;56.58;98900.03;4461856;32;32247;-77
2023/08/27 01:03:51;;;;;;;3.67;1.83;;;;;;;26.42;57.88;98904.63;4458897;32;33953;-77
2023/08/27 01:06:20;;;;;;;4.07;2.25;;;;;;;26.59;58.00;98899.47;4458108;32;33957;-78
2023/08/27 01:08:54;;;;;;;4.60;2.40;;;;;;;26.69;57.00;98894.13;4468428;32;33472;-77
2023/08/27 01:11:28;;;;;;;8.55;2.10;;;;;;;26.80;56.84;98911.78;4464281;32;34729;-77
2023/08/27 01:14:01;;;;;;;5.25;2.55;;;;;;;26.33;57.34;98941.69;4462566;32;34610;-78
2023/08/27 01:16:30;;;;;;;3.95;2.00;;;;;;;25.91;59.23;98925.16;4461121;32;34637;-78
2023/08/27 01:19:00;;;;;;;3.47;1.87;;;;;;;26.04;59.30;98939.00;4459356;32;33687;-77
2023/08/27 01:21:30;;;;;;;2.17;1.50;;;;;;;25.89;59.86;98941.22;4463848;32;33818;-78
2023/08/27 01:24:00;;;;;;;5.62;2.33;;;;;;;25.87;59.87;98937.84;4463749;32;33522;-78
2023/08/27 01:26:33;;;;;;;3.97;2.10;;;;;;;26.08;59.54;98932.47;4463767;32;35075;-77
2023/08/27 01:29:06;;;;;;;3.92;2.00;;;;;;;26.05;59.24;98923.94;4469761;31;34408;-78
2023/08/27 01:31:41;;;;;;;4.53;2.05;;;;;;;25.99;59.36;98924.47;4463046;32;32333;-77
2023/08/27 01:34:11;;;;;;;5.07;2.30;;;;;;;26.02;59.29;98926.84;4464192;32;33424;-77
2023/08/27 01:36:42;;;;;;;3.65;1.75;;;;;;;26.13;59.02;98919.59;4460785;32;34582;-78
2023/08/27 01:39:14;;;;;;;4.53;2.65;;;;;;;26.18;58.48;98921.84;4464322;32;34417;-77
2023/08/27 01:41:43;;;;;;;4.10;2.47;;;;;;;26.13;58.63;98919.59;4476687;32;32985;-78
2023/08/27 01:44:12;;;;;;;4.07;2.55;;;;;;;25.96;59.17;98918.44;4466002;32;34062;-78
2023/08/27 01:46:41;;;;;;;4.03;2.28;;;;;;;26.02;58.99;98916.22;4459847;32;34599;-77
2023/08/27 01:49:10;;;;;;;4.10;2.58;;;;;;;25.96;59.12;98909.63;4460756;32;34134;-77
2023/08/27 01:51:40;;;;;;;3.85;2.30;;;;;;;26.02;59.09;98906.41;4470861;31;33733;-77
2023/08/27 01:54:09;;;;;;;3.78;2.25;;;;;;;26.17;58.32;98909.53;4462613;32;32979;-76
2023/08/27 01:56:38;;;;;;;3.80;2.30;;;;;;;26.10;58.83;98909.25;4472501;32;34565;-77
2023/08/27 01:59:07;;;;;;;3.90;2.10;;;;;;;26.24;58.33;98910.66;4464606;32;33530;-77
2023/08/27 02:01:40;;;;;;;4.87;2.62;;;;;;;26.30;57.96;98909.25;4461365;31;33178;-76
2023/08/27 02:04:09;;;;;;;5.15;2.83;;;;;;;26.22;57.80;98907.28;4473483;32;33496;-78
2023/08/27 02:06:37;;;;;;;4.80;2.78;;;;;;;25.89;58.74;98917.31;4463630;32;33807;-78
2023/08/27 02:09:08;;;;;;;3.72;2.45;;;;;;;25.89;58.76;98917.31;4460636;32;33863;-77
2023/08/27 02:11:37;;;;;;;4.32;2.42;;;;;;;25.86;59.11;98928.22;4459049;32;33462;-77
2023/08/27 02:14:05;;;;;;;6.95;3.60;;;;;;;25.65;59.84;98922.09;4474677;32;34068;-76
2023/08/27 02:16:35;;;;;;;3.95;2.17;;;;;;;25.74;59.82;98922.12;4467796;32;33440;-77
2023/08/27 02:19:04;;;;;;;3.50;2.00;;;;;;;25.62;60.67;98925.03;4476194;32;34915;-77
2023/08/27 02:21:33;;;;;;;5.72;3.08;;;;;;;25.68;60.63;98924.50;4460091;32;33362;-78
2023/08/27 02:24:02;;;;;;;4.75;2.20;;;;;;;25.39;61.58;98932.34;4468595;32;33394;-77
2023/08/27 02:26:32;;;;;;;5.32;2.60;;;;;;;25.47;61.65;98933.37;4468216;32;34522;-78
2023/08/27 02:29:02;;;;;;;3.57;2.00;;;;;;;25.65;60.97;98932.72;4474972;32;35812;-78
2023/08/27 02:31:31;;;;;;;3.80;2.28;;;;;;;25.37;61.92;98929.84;4459331;32;33432;-77
2023/08/27 02:34:00;;;;;;;3.37;2.03;;;;;;;25.16;62.68;98926.34;4459416;31;34167;-76
2023/08/27 02:36:29;;;;;;;4.03;2.53;;;;;;;25.10;63.04;98928.56;4465245;32;33615;-77
2023/08/27 02:38:58;;;;;;;4.03;1.85;;;;;;;25.10;63.12;98933.00;4472942;32;33462;-77
2023/08/27 02:41:27;;;;;;;3.25;1.67;;;;;;;25.16;63.08;98923.69;4470883;32;32932;-78
2023/08/27 02:44:00;;;;;;;3.65;2.25;;;;;;;25.24;62.81;98922.06;4470172;32;33537;-77
2023/08/27 02:46:29;;;;;;;4.12;2.03;;;;;;;25.12;63.22;98923.09;4462305;32;35298;-76
2023/08/27 02:48:58;;;;;;;3.47;2.10;;;;;;;24.84;63.89;98927.25;4459191;32;33539;-77
2023/08/27 02:51:26;;;;;;;4.12;2.10;;;;;;;24.95;63.67;98924.53;4469249;32;33745;-77
2023/08/27 02:53:55;;;;;;;3.95;1.87;;;;;;;25.25;62.32;98928.22;4469254;32;34529;-77
2023/08/27 02:56:24;;;;;;;3.28;1.58;;;;;;;25.10;62.98;98925.03;4459818;32;33629;-78
2023/08/27 02:58:53;;;;;;;4.05;2.58;;;;;;;25.02;63.30;98932.84;4459834;32;33605;-78
2023/08/27 03:01:25;;;;;;;1.73;1.27;;;;;;;25.24;62.66;98927.37;4474229;32;33229;-77
2023/08/27 03:03:54;;;;;;;3.08;1.67;;;;;;;25.15;62.81;98932.63;4457557;32;32833;-80
2023/08/27 03:06:23;;;;;;;3.30;1.52;;;;;;;25.12;62.98;98926.59;4463465;32;34459;-81
2023/08/27 03:08:52;;;;;;;2.35;1.58;;;;;;;25.34;61.94;98930.94;4469164;32;33240;-79
2023/08/27 03:11:21;;;;;;;2.62;1.48;;;;;;;25.47;61.16;98928.06;4471604;32;33437;-79
2023/08/27 03:13:49;;;;;;;3.35;1.75;;;;;;;25.13;62.42;98940.72;4479459;32;34615;-80
2023/08/27 03:16:18;;;;;;;3.58;1.90;;;;;;;24.96;62.94;98936.00;4464591;32;33881;-80
2023/08/27 03:18:49;;;;;;;3.08;1.40;;;;;;;24.97;62.68;98940.34;4465910;32;34642;-79
2023/08/27 03:21:17;;;;;;;4.10;2.27;;;;;;;24.64;63.96;98936.91;4470201;32;34815;-79
2023/08/27 03:23:46;;;;;;;3.90;1.92;;;;;;;24.54;64.21;98946.59;4472143;32;33410;-80
2023/08/27 03:26:15;;;;;;;2.45;1.42;;;;;;;24.66;63.49;98943.75;4463537;32;33738;-80
2023/08/27 03:28:46;;;;;;;2.60;1.50;;;;;;;24.69;63.40;98942.66;4460258;32;34141;-81
2023/08/27 03:31:15;;;;;;;2.45;1.23;;;;;;;24.49;63.79;98950.47;4463417;32;33186;-80
2023/08/27 03:33:45;;;;;;;3.08;1.75;;;;;;;24.74;62.78;98943.09;4465797;32;34368;-79
2023/08/27 03:36:15;;;;;;;2.53;1.33;;;;;;;24.55;63.22;98948.25;4466103;32;33774;-79
2023/08/27 03:38:44;;;;;;;1.98;1.17;;;;;;;24.25;64.17;98949.78;4470996;32;34593;-79
2023/08/27 03:41:13;;;;;;;1.95;1.20;;;;;;;24.34;63.94;98954.34;4461991;32;33797;-80
2023/08/27 03:43:41;;;;;;;2.83;0.90;;;;;;;24.59;62.61;98953.19;4460636;32;34446;-81
2023/08/27 03:46:10;;;;;;;2.15;1.23;;;;;;;24.22;63.89;98958.00;4469596;32;34560;-80
2023/08/27 03:48:39;;;;;;;2.45;0.80;;;;;;;24.28;63.92;98958.34;4476123;32;33521;-79
2023/08/27 03:51:08;;;;;;;1.87;1.00;;;;;;;24.00;64.36;98961.56;4470073;32;33993;-80
2023/08/27 03:53:39;;;;;;;3.20;1.35;;;;;;;24.13;64.18;98959.59;4468560;32;33871;-79
2023/08/27 03:56:08;;;;;;;0.85;0.70;;;;;;;24.10;63.76;98954.53;4466608;32;33227;-80
2023/08/27 03:58:37;;;;;;;0.73;0.68;;;;;;;24.06;63.83;98956.56;4472365;32;34886;-81
2023/08/27 04:01:05;;;;;;;1.55;1.00;;;;;;;24.18;63.37;98959.22;4469613;32;34143;-79
2023/08/27 04:03:34;;;;;;;2.15;0.90;;;;;;;24.33;62.65;98962.41;4461454;32;33590;-79
2023/08/27 04:06:06;;;;;;;1.67;0.98;;;;;;;24.09;63.21;98967.91;4463496;32;33904;-79
2023/08/27 04:08:35;;;;;;;0.98;0.77;;;;;;;23.99;63.47;98965.16;4473804;32;33597;-79
2023/08/27 04:11:05;;;;;;;2.75;1.45;;;;;;;23.90;63.87;98969.41;4465216;32;33197;-79
2023/08/27 04:13:35;;;;;;;1.37;0.83;;;;;;;23.98;63.83;98966.13;4468386;32;33841;-80
2023/08/27 04:16:06;;;;;;;2.03;0.82;;;;;;;23.99;63.73;98967.81;4459355;32;33276;-80
2023/08/27 04:18:36;;;;;;;1.50;0.90;;;;;;;23.91;64.02;98975.53;4475473;32;34668;-81
2023/08/27 04:21:05;;;;;;;1.15;0.90;;;;;;;23.94;63.59;98965.50;4460697;32;33635;-80
2023/08/27 04:23:34;;;;;;;0.80;0.68;;;;;;;24.19;62.69;98980.31;4462104;32;33827;-79
2023/08/27 04:26:03;;;;;;;2.90;0.77;;;;;;;24.17;62.64;98968.16;4466603;32;34311;-80
2023/08/27 04:28:34;;;;;;;0.80;0.60;;;;;;;24.02;63.04;98967.56;4459983;32;34521;-80
2023/08/27 04:31:03;;;;;;;2.60;1.00;;;;;;;24.13;62.50;98956.09;4467083;32;32638;-80
2023/08/27 04:33:32;;;;;;;2.90;0.65;;;;;;;24.01;63.03;98953.47;4459149;32;34478;-79
2023/08/27 04:36:01;;;;;;;0.75;0.45;;;;;;;24.24;62.05;98951.59;4465245;32;33333;-80
2023/08/27 04:38:29;;;;;;;1.58;0.70;;;;;;;24.32;61.79;98955.44;4468818;32;34517;-79
2023/08/27 04:40:58;;;;;;;0.68;0.62;;;;;;;24.33;61.68;98960.62;4469416;32;33200;-80
2023/08/27 04:43:27;;;;;;;1.62;0.73;;;;;;;24.16;62.46;98956.72;4467282;32;33149;-80
2023/08/27 04:45:57;;;;;;;2.10;1.02;;;;;;;24.32;62.09;98958.94;4468512;32;34598;-79
2023/08/27 04:48:26;;;;;;;1.97;0.90;;;;;;;24.48;62.07;98945.31;4464610;32;34368;-79
2023/08/27 04:50:55;;;;;;;1.35;0.57;;;;;;;24.55;61.44;98946.47;4459597;32;34288;-80
2023/08/27 04:53:26;;;;;;;1.00;0.73;;;;;;;24.62;61.01;98941.47;4467384;32;34618;-80
2023/08/27 04:55:55;;;;;;;0.77;0.60;;;;;;;24.57;61.49;98943.69;4459901;32;34097;-80
2023/08/27 04:58:24;;;;;;;1.55;0.68;;;;;;;24.43;61.85;98953.59;4459464;32;34353;-78
2023/08/27 05:00:54;;;;;;;1.77;0.93;;;;;;;24.65;61.55;98947.38;4460601;32;33890;-80
2023/08/27 05:03:28;;;;;;;1.02;0.88;;;;;;;24.52;61.67;98956.47;4464085;32;33550;-79
2023/08/27 05:05:57;;;;;;;1.02;0.70;;;;;;;24.52;61.47;98959.13;4456887;32;33949;-79
2023/08/27 05:08:26;;;;;;;1.10;0.82;;;;;;;24.51;61.47;98962.75;4461609;32;34422;-79
2023/08/27 05:10:55;;;;;;;1.05;0.60;;;;;;;24.40;62.33;98963.59;4460724;32;33029;-79
2023/08/27 05:13:25;;;;;;;2.50;0.65;;;;;;;24.57;61.25;98981.63;4460961;32;34354;-80
2023/08/27 05:15:54;;;;;;;1.90;1.17;;;;;;;24.76;61.00;98983.62;4474537;32;34643;-80
2023/08/27 05:18:23;;;;;;;1.00;0.70;;;;;;;24.70;60.79;98987.63;4467424;32;33881;-80
2023/08/27 05:20:53;;;;;;;1.08;0.70;;;;;;;24.78;60.80;98981.69;4460095;32;32959;-80
2023/08/27 05:23:23;;;;;;;0.60;0.50;;;;;;;24.73;61.11;98986.53;4460743;32;35015;-80
2023/08/27 05:25:52;;;;;;;0.43;0.40;;;;;;;24.86;60.80;98981.03;4474394;32;33065;-80
2023/08/27 05:28:21;;;;;;;1.33;0.62;;;;;;;25.26;59.61;98978.53;4475921;32;33677;-80
2023/08/27 05:30:49;;;;;;;0.90;0.77;;;;;;;25.58;58.67;98972.25;4469622;32;33248;-80
2023/08/27 05:33:18;;;;;;;1.23;0.68;;;;;;;26.16;56.75;98966.31;4479817;32;35280;-80
2023/08/27 05:35:49;;;;;;;1.30;0.70;;;;;;;26.60;55.19;98956.16;4469097;32;34362;-80
2023/08/27 05:38:20;;;;;;;0.30;0.30;;;;;;;26.84;55.00;98957.56;4479993;32;33942;-80
2023/08/27 05:40:51;;;;;;;1.85;0.70;;;;;;;27.26;53.25;98951.91;4463819;32;32767;-80
2023/08/27 05:43:21;;;;;;;1.55;0.60;;;;;;;27.44;52.95;98947.50;4461694;32;33471;-80
2023/08/27 05:45:50;;;;;;;1.33;0.70;;;;;;;27.71;52.35;98951.16;4463504;32;33666;-80
2023/08/27 05:48:19;;;;;;;2.85;1.27;;;;;;;27.67;52.46;98962.13;4466358;32;33741;-80
2023/08/27 05:50:47;;;;;;;1.20;0.60;;;;;;;27.50;53.22;98965.56;4459575;32;33143;-80
2023/08/27 05:53:17;;;;;;;1.25;0.50;;;;;;;27.19;53.63;98975.59;4460641;32;33929;-81
2023/08/27 05:55:47;;;;;;;0.68;0.55;;;;;;;26.94;54.86;98969.03;4469044;32;34614;-79
2023/08/27 05:58:17;;;;;;;3.65;0.90;;;;;;;26.59;56.13;98976.59;4465769;32;33014;-81
2023/08/27 06:00:46;;;;;;;1.83;0.62;;;;;;;26.55;56.36;98977.84;4461149;32;33046;-80
2023/08/27 06:03:15;;;;;;;1.73;0.75;;;;;;;26.38;57.46;98976.69;4472378;32;33429;-80
2023/08/27 06:05:43;;;;;;;0.70;0.57;;;;;;;26.40;56.86;98974.75;4461588;32;34390;-80
2023/08/27 06:08:12;;;;;;;1.58;0.75;;;;;;;26.13;58.13;98971.91;4467422;32;33730;-80
2023/08/27 06:10:41;;;;;;;2.12;0.80;;;;;;;26.24;57.54;98969.16;4466157;32;33359;-80
2023/08/27 06:13:11;;;;;;;1.40;0.70;;;;;;;26.24;57.42;98969.16;4466001;32;33844;-80
2023/08/27 06:15:40;;;;;;;1.35;0.73;;;;;;;26.10;58.54;98969.53;4469274;32;33116;-81
2023/08/27 06:18:09;;;;;;;1.87;1.00;;;;;;;26.38;57.46;98965.22;4468099;32;33993;-80
2023/08/27 06:20:38;;;;;;;0.77;0.70;;;;;;;26.12;58.21;98949.81;4474407;32;33167;-80
2023/08/27 06:23:07;;;;;;;2.72;1.00;;;;;;;26.26;57.70;98951.22;4471152;32;34586;-80
2023/08/27 06:25:37;;;;;;;2.35;1.05;;;;;;;26.54;56.95;98951.41;4466810;32;32390;-79
2023/08/27 06:28:07;;;;;;;1.33;0.82;;;;;;;26.62;56.56;98956.03;4471551;32;33883;-80
2023/08/27 06:30:42;;;;;;;2.05;0.90;;;;;;;26.52;56.92;98950.69;4466460;32;33408;-80
2023/08/27 06:33:11;;;;;;;1.20;0.85;;;;;;;26.86;56.56;98940.47;4464641;32;33774;-81
2023/08/27 06:35:43;;;;;;;2.17;1.02;;;;;;;26.95;56.74;98944.09;4464747;32;34725;-80
2023/08/27 06:38:11;;;;;;;1.20;0.70;;;;;;;27.09;55.62;98934.84;4465720;32;33395;-80
2023/08/27 06:40:41;;;;;;;1.37;0.88;;;;;;;27.07;56.38;98948.28;4467020;31;33339;-80
2023/08/27 06:43:10;;;;;;;2.37;1.10;;;;;;;27.03;56.55;98938.88;4473434;32;33787;-80
2023/08/27 06:45:44;;;;;;;2.40;1.25;;;;;;;27.16;55.31;98941.22;4466776;32;34505;-80
2023/08/27 06:48:13;;;;;;;1.55;0.88;;;;;;;27.22;55.55;98943.34;4463833;32;34059;-80
2023/08/27 06:50:42;;;;;;;2.58;1.30;;;;;;;27.31;55.79;98945.16;4464065;32;34146;-80
2023/08/27 06:53:11;;;;;;;1.23;0.90;;;;;;;27.51;55.81;98942.41;4465510;32;33558;-80
2023/08/27 06:55:40;;;;;;;1.37;0.82;;;;;;;27.48;55.65;98942.72;4469668;32;33564;-80
2023/08/27 06:58:09;;;;;;;2.03;0.93;;;;;;;27.38;55.24;98937.44;4466717;32;33715;-80
2023/08/27 07:00:39;;;;;;;2.72;1.10;;;;;;;27.43;55.52;98932.50;4467411;32;33299;-80
2023/08/27 07:03:10;;;;;;;3.20;1.40;;;;;;;27.69;55.21;98930.00;4466633;32;33698;-81
2023/08/27 07:05:39;;;;;;;2.33;1.30;;;;;;;27.75;55.63;98940.06;4463522;31;33364;-81
2023/08/27 07:08:08;;;;;;;2.80;1.45;;;;;;;27.99;55.41;98944.03;4461177;32;33557;-81
2023/08/27 07:10:38;;;;;;;3.78;1.95;;;;;;;27.99;55.33;98944.03;4466335;32;33353;-81
2023/08/27 07:13:06;;;;;;;3.28;1.55;;;;;;;28.02;55.36;98957.06;4461211;32;33614;-80
2023/08/27 07:15:35;;;;;;;3.15;1.20;;;;;;;27.94;55.71;98944.47;4461863;32;34094;-81
2023/08/27 07:18:05;;;;;;;1.33;0.90;;;;;;;27.93;55.25;98949.94;4464476;32;34141;-80
2023/08/27 07:20:35;;;;;;;2.92;1.58;;;;;;;27.92;56.27;98946.44;4457898;32;33249;-80
2023/08/27 07:23:07;;;;;;;3.35;1.77;;;;;;;27.84;55.83;98949.87;4473261;32;33507;-81
2023/08/27 07:25:36;;;;;;;3.03;1.52;;;;;;;28.41;54.18;98951.44;4463395;32;33799;-80
2023/08/27 07:28:06;;;;;;;5.03;2.00;;;;;;;28.49;53.28;98951.56;4468636;32;33996;-80
2023/08/27 07:30:36;;;;;;;5.32;2.65;;;;;;;28.17;53.58;98947.53;4462908;32;33128;-81
2023/08/27 07:33:06;;;;;;;3.42;1.80;;;;;;;28.44;53.61;98941.31;4463860;31;33388;-80
2023/08/27 07:35:39;;;;;;;3.70;2.12;;;;;;;28.83;52.34;98943.69;4461845;32;34479;-80
2023/08/27 07:38:08;;;;;;;3.30;1.73;;;;;;;28.37;54.09;98936.75;4466383;32;32960;-79
2023/08/27 07:40:37;;;;;;;2.80;1.52;;;;;;;28.44;53.81;98928.00;4469165;32;33974;-80
2023/08/27 07:43:06;;;;;;;4.50;2.10;;;;;;;28.21;54.37;98934.75;4468686;32;33905;-81
2023/08/27 07:45:36;;;;;;;3.60;1.63;;;;;;;28.66;53.45;98928.53;4465240;32;33807;-80
2023/08/27 07:48:05;;;;;;;3.33;1.95;;;;;;;28.69;54.20;98914.88;4458441;32;34087;-80
2023/08/27 07:50:34;;;;;;;3.85;2.08;;;;;;;28.74;54.48;98915.25;4467699;32;32963;-81
2023/08/27 07:53:04;;;;;;;2.95;1.55;;;;;;;29.20;53.36;98921.25;4466507;32;34268;-80
2023/08/27 07:55:34;;;;;;;4.25;1.70;;;;;;;29.11;53.62;98916.84;4461343;32;32792;-80
2023/08/27 07:58:04;;;;;;;3.03;1.65;;;;;;;29.34;53.00;98915.31;4464541;32;33898;-80
2023/08/27 08:00:32;;;;;;;3.95;2.42;;;;;;;29.18;53.76;98907.22;4466200;32;33233;-80
2023/08/27 08:03:02;;;;;;;3.33;1.73;;;;;;;29.28;53.99;98902.59;4469955;32;33459;-80
2023/08/27 08:05:31;;;;;;;3.65;1.85;;;;;;;29.45;52.98;98903.50;4462587;32;34574;-79
2023/08/27 08:08:00;;;;;;;2.05;1.30;;;;;;;29.59;53.00;98910.09;4462689;32;33573;-80
2023/08/27 08:10:31;;;;;;;4.83;2.33;;;;;;;29.81;53.52;98914.03;4465677;32;33799;-80
2023/08/27 08:13:00;;;;;;;3.03;1.77;;;;;;;30.00;52.33;98923.63;4470336;32;33573;-80
2023/08/27 08:15:28;;;;;;;3.72;2.03;;;;;;;29.93;51.35;98919.91;4468303;32;33886;-80
2023/08/27 08:17:57;;;;;;;2.83;1.55;;;;;;;30.13;51.96;98912.44;4465069;32;33682;-80
2023/08/27 08:20:26;;;;;;;2.85;1.50;;;;;;;30.38;50.67;98921.38;4462801;32;33428;-80
2023/08/27 08:22:55;;;;;;;4.10;2.12;;;;;;;30.12;50.48;98910.78;4471135;32;33595;-80
2023/08/27 08:25:25;;;;;;;3.67;1.70;;;;;;;30.43;50.11;98904.81;4464511;32;34658;-80
2023/08/27 08:27:55;;;;;;;5.90;2.25;;;;;;;30.46;49.79;98899.97;4459083;32;33343;-81
2023/08/27 08:30:24;;;;;;;3.30;1.58;;;;;;;30.50;49.07;98909.34;4458113;32;32810;-80
2023/08/27 08:32:52;;;;;;;2.87;1.83;;;;;;;30.89;48.95;98900.62;4475077;32;33505;-80
2023/08/27 08:35:21;;;;;;;6.97;2.10;;;;;;;30.47;49.03;98906.13;4462704;32;33617;-81
2023/08/27 08:37:50;;;;;;;4.10;2.37;;;;;;;30.86;48.74;98895.63;4470968;32;33777;-80
2023/08/27 08:40:19;;;;;;;2.92;1.70;;;;;;;30.80;48.14;98891.72;4464258;32;31522;-80
2023/08/27 08:42:52;;;;;;;2.97;1.83;;;;;;;31.14;48.29;98895.22;4470209;32;34146;-80
2023/08/27 08:45:28;;;;;;;4.85;2.30;;;;;;;31.15;49.20;98899.59;4475030;32;34663;-80
2023/08/27 08:47:57;;;;;;;3.67;1.73;;;;;;;31.05;47.59;98902.47;4476292;31;34735;-80
2023/08/27 08:50:27;;;;;;;3.17;1.80;;;;;;;31.11;47.21;98903.59;4461360;32;31406;-79
2023/08/27 08:52:57;;;;;;;3.80;1.87;;;;;;;31.26;47.72;98904.56;4474866;32;34431;-80
2023/08/27 08:55:26;;;;;;;4.43;1.92;;;;;;;31.45;46.86;98904.19;4471665;32;33901;-79
2023/08/27 08:57:58;;;;;;;4.40;2.20;;;;;;;31.32;48.00;98900.38;4469101;32;33745;-80
2023/08/27 09:00:29;;;;;;;4.70;2.25;;;;;;;31.37;47.43;98904.19;4466200;31;34338;-80
2023/08/27 09:03:02;;;;;;;4.28;1.87;;;;;;;31.61;46.29;98903.28;4462380;32;33387;-80
2023/08/27 09:05:32;;;;;;;3.20;2.05;;;;;;;31.53;46.17;98897.94;4465166;32;32388;-79
2023/08/27 09:08:01;;;;;;;3.03;1.45;;;;;;;31.76;45.87;98902.56;4473095;32;33074;-80
2023/08/27 09:10:31;;;;;;;3.20;1.77;;;;;;;31.66;46.34;98900.09;4468738;32;33355;-80
2023/08/27 09:13:02;;;;;;;3.85;2.12;;;;;;;31.80;45.85;98899.34;4467375;32;32909;-80
2023/08/27 09:15:32;;;;;;;4.72;2.12;;;;;;;31.94;46.98;98896.91;4464890;32;33594;-80
2023/08/27 09:18:02;;;;;;;;;;;;;;;31.75;44.50;98885.63;4458003;32;33134;-79
2023/08/27 09:20:31;;;;;;;5.03;2.28;;;;;;;31.86;45.96;98882.53;4467939;32;34980;-80
2023/08/27 09:23:00;;;;;;;4.18;1.73;;;;;;;32.23;43.95;98880.16;4457893;32;34337;-80
2023/08/27 09:25:29;;;;;;;5.57;2.08;;;;;;;32.22;45.51;98883.84;4458470;32;33211;-80
2023/08/27 09:27:58;;;;;;;4.47;2.40;;;;;;;32.26;43.04;98879.81;4448061;32;32608;-80
2023/08/27 09:30:28;;;;;;;4.85;2.15;;;;;;;32.37;43.80;98883.91;4460801;32;34507;-80
2023/08/27 09:32:59;;;;;;;3.33;1.90;;;;;;;32.40;43.94;98883.53;4459801;32;34122;-79
2023/08/27 09:35:36;;;;;;;;;;;;;;;32.70;43.68;98873.75;4468442;32;33073;-80
2023/08/27 09:38:05;;;;;;;3.80;2.03;;;;;;;32.72;44.54;98871.72;4468703;32;33679;-80
2023/08/27 09:40:34;;;;;;;6.00;3.03;;;;;;;32.79;43.63;98869.12;4465026;32;32826;-79
2023/08/27 09:43:05;;;;;;;4.28;2.20;;;;;;;32.65;43.36;98868.09;4470241;32;33300;-79
2023/08/27 09:45:34;;;;;;;5.32;2.37;;;;;;;32.67;44.18;98863.38;4468680;32;32847;-80
2023/08/27 09:48:07;;;;;;;4.53;2.65;;;;;;;32.70;44.03;98869.22;4469308;32;33890;-81
2023/08/27 09:50:36;;;;;;;4.75;2.10;;;;;;;32.86;43.38;98873.59;4467449;32;31726;-80
2023/08/27 09:53:06;;;;;;;5.03;2.20;;;;;;;33.07;44.61;98870.19;4470687;32;33590;-80
2023/08/27 09:55:35;;;;;;;4.87;2.40;;;;;;;33.17;44.82;98871.78;4468917;32;33859;-80
2023/08/27 09:58:05;;;;;;;3.73;2.17;;;;;;;33.29;43.54;98868.41;4468243;32;33453;-80
2023/08/27 10:00:34;;;;;;;3.87;2.35;;;;;;;33.33;43.57;98866.22;4465288;32;33188;-79
2023/08/27 10:03:05;;;;;;;5.50;2.12;;;;;;;33.44;43.93;98873.81;4476746;31;33417;-80
2023/08/27 10:05:35;;;;;;;;;;;;;;;33.25;44.38;98869.84;4474332;32;34028;-78
2023/08/27 10:08:06;;;;;;;5.53;2.25;;;;;;;33.24;44.48;98865.47;4464058;32;33139;-78
2023/08/27 10:10:36;;;;;;;3.87;2.25;;;;;;;33.51;42.93;98877.38;4461387;32;33416;-78
2023/08/27 10:13:05;;;;;;;3.80;1.95;;;;;;;33.51;42.00;98882.75;4458802;32;33995;-78
2023/08/27 10:15:36;;;;;;;4.10;2.30;;;;;;;33.57;42.33;98867.78;4463004;32;33762;-78
2023/08/27 10:18:06;;;;;;;3.97;2.05;;;;;;;33.53;42.37;98872.66;4465132;32;34443;-78
2023/08/27 10:20:37;;;;;;;4.95;2.42;;;;;;;33.76;42.39;98860.97;4462093;32;32996;-77
2023/08/27 10:23:06;;;;;;;4.75;2.62;;;;;;;33.85;42.38;98867.06;4460581;32;34235;-78
2023/08/27 10:25:36;;;;;;;5.70;2.40;;;;;;;33.87;42.54;98855.06;4461875;32;34286;-77
2023/08/27 10:28:05;;;;;;;5.15;2.28;;;;;;;34.04;42.36;98850.28;4470686;32;32660;-78
2023/08/27 10:30:35;;;;;;;3.67;2.13;;;;;;;34.19;41.29;98847.56;4459864;32;33104;-77
2023/08/27 10:33:04;;;;;;;;;;;;;;;34.16;41.66;98845.25;4467664;32;33017;-77
2023/08/27 10:35:36;;;;;;;4.37;2.70;;;;;;;33.77;41.48;98849.19;4465915;32;34780;-77
2023/08/27 10:38:06;;;;;;;3.20;2.05;;;;;;;34.14;40.94;98852.69;4467056;32;34389;-78
2023/08/27 10:40:36;;;;;;;;;;;;;;;34.20;40.46;98851.94;4475237;32;32300;-77
2023/08/27 10:43:08;;;;;;;3.60;1.73;;;;;;;34.41;40.86;98843.81;4467720;32;34135;-78
2023/08/27 10:45:38;;;;;;;3.05;2.08;;;;;;;34.32;40.80;98839.59;4465948;32;33688;-77
2023/08/27 10:48:08;;;;;;;4.55;2.45;;;;;;;34.20;39.79;98833.09;4466461;32;33462;-78
2023/08/27 10:50:48;;;;;;;4.33;2.17;;;;;;;34.34;40.38;98836.72;4466339;32;33537;-78
2023/08/27 10:53:18;;;;;;;3.83;1.98;;;;;;;34.29;39.84;98823.84;4469651;32;33683;-78
2023/08/27 10:55:50;;;;;;;4.30;2.15;;;;;;;34.54;40.03;98826.09;4464783;32;34833;-78
2023/08/27 10:58:21;;;;;;;4.43;2.25;;;;;;;34.51;39.63;98827.34;4468516;32;33657;-78
2023/08/27 11:01:07;;;;;;;3.90;2.03;;;;;;;34.46;38.82;98820.84;4465395;32;33174;-78
2023/08/27 11:03:55;;;;;;;4.87;2.25;;;;;;;34.77;38.32;98826.72;4472848;32;34618;-77
2023/08/27 11:06:38;;;;;;;5.05;2.50;;;;;;;34.96;39.07;98818.94;4470711;32;34426;-77
2023/08/27 11:09:15;;;;;;;3.58;2.03;;;;;;;34.96;38.85;98821.63;4467544;32;34525;-77
2023/08/27 11:11:52;;;;;;;3.80;2.08;;;;;;;34.87;38.18;98820.13;4469849;32;33000;-79
2023/08/27 11:14:21;;;;;;;;;;;;;;;34.96;38.47;98816.25;4465718;32;35260;-78
2023/08/27 11:16:55;;;;;;;4.07;1.95;;;;;;;34.90;36.96;98817.06;4471408;32;34842;-77
2023/08/27 11:19:25;;;;;;;6.18;2.65;;;;;;;35.24;36.47;98818.91;4477714;32;33493;-78
2023/08/27 11:22:10;;;;;;;4.57;2.75;;;;;;;35.12;36.02;98817.81;4464615;32;32452;-77
2023/08/27 11:24:42;;;;;;;3.67;2.28;;;;;;;35.22;36.01;98818.28;4469726;31;33842;-78
2023/08/27 11:27:12;;;;;;;4.20;2.42;;;;;;;35.53;36.12;98816.94;4463287;32;34111;-78
2023/08/27 11:29:43;;;;;;;5.15;2.62;;;;;;;35.46;35.42;98819.63;4471949;32;33704;-78
2023/08/27 11:32:13;;;;;;;4.80;2.33;;;;;;;35.55;35.92;98815.72;4478902;32;32945;-78
2023/08/27 11:34:43;;;;;;;4.85;2.58;;;;;;;35.60;34.99;98813.25;4458717;32;33783;-78
2023/08/27 11:37:13;;;;;;;4.10;2.47;;;;;;;35.75;33.52;98821.19;4464842;32;31444;-78
2023/08/27 11:39:47;;;;;;;3.87;2.00;;;;;;;35.82;34.69;98821.19;4457180;32;34224;-77
2023/08/27 11:42:17;;;;;;;5.12;2.22;;;;;;;35.84;35.04;98811.87;4471350;32;33221;-77
2023/08/27 11:44:49;;;;;;;4.07;2.00;;;;;;;36.09;34.75;98814.81;4461249;32;33486;-78
2023/08/27 11:47:19;;;;;;;5.30;2.17;;;;;;;36.29;34.66;98805.88;4463671;32;33322;-78